createdAt,value
2018-02-09T00:00:17.140Z,51.00
2018-02-09T00:02:44.667Z,51.00
2018-02-09T00:05:12.216Z,51.00
2018-02-09T00:07:40.538Z,51.00
2018-02-09T00:10:09.328Z,51.00
2018-02-09T00:12:36.823Z,51.00
2018-02-09T00:15:04.444Z,50.90
2018-02-09T00:17:31.917Z,51.00
2018-02-09T00:20:00.544Z,50.90
2018-02-09T00:22:40.135Z,50.90
2018-02-09T00:25:07.667Z,50.90
2018-02-09T00:27:35.850Z,50.80
2018-02-09T00:30:03.362Z,50.80
2018-02-09T00:32:31.645Z,50.80
2018-02-09T00:34:59.912Z,50.80
2018-02-09T00:37:28.165Z,50.80
2018-02-09T00:42:39.779Z,50.80
2018-02-09T00:45:07.301Z,50.80
2018-02-09T00:47:35.282Z,50.80
2018-02-09T00:50:03.678Z,50.80
2018-02-09T00:55:07.606Z,50.80
2018-02-09T00:57:35.887Z,50.80
2018-02-09T01:00:03.474Z,50.80
2018-02-09T01:02:31.009Z,50.80
2018-02-09T01:04:58.566Z,50.80
2018-02-09T01:07:26.962Z,50.80
2018-02-09T01:09:54.882Z,50.80
2018-02-09T01:12:22.369Z,50.80
2018-02-09T01:14:51.022Z,50.80
2018-02-09T01:17:18.654Z,50.80
2018-02-09T01:19:47.974Z,50.80
2018-02-09T01:22:15.592Z,50.80
2018-02-09T01:24:45.047Z,51.40
2018-02-09T01:27:13.604Z,50.80
2018-02-09T01:29:42.162Z,50.80
2018-02-09T01:32:09.776Z,50.70
2018-02-09T01:34:37.276Z,50.80
2018-02-09T01:37:06.459Z,51.20
2018-02-09T01:39:34.037Z,50.70
2018-02-09T01:42:02.406Z,51.30
2018-02-09T01:44:30.677Z,50.70
2018-02-09T01:46:58.179Z,50.70
2018-02-09T01:49:26.499Z,50.70
2018-02-09T01:51:54.110Z,50.70
2018-02-09T01:54:21.653Z,50.70
2018-02-09T01:56:49.175Z,50.70
2018-02-09T01:59:16.662Z,50.70
2018-02-09T02:01:45.019Z,50.70
2018-02-09T02:04:12.529Z,50.70
2018-02-09T02:06:40.258Z,50.70
2018-02-09T02:09:07.792Z,50.70
2018-02-09T02:11:35.526Z,50.60
2018-02-09T02:14:03.064Z,50.70
2018-02-09T02:16:31.829Z,50.70
2018-02-09T02:19:00.102Z,50.70
2018-02-09T02:21:28.350Z,50.70
2018-02-09T02:23:55.870Z,50.70
2018-02-09T02:26:25.537Z,50.70
2018-02-09T02:28:54.178Z,50.70
2018-02-09T02:31:22.470Z,50.70
2018-02-09T02:33:51.440Z,50.70
2018-02-09T02:36:19.094Z,50.70
2018-02-09T02:38:47.498Z,50.70
2018-02-09T02:41:15.398Z,50.70
2018-02-09T02:43:43.675Z,50.70
2018-02-09T02:46:12.861Z,50.70
2018-02-09T02:48:41.195Z,50.70
2018-02-09T02:51:12.524Z,50.70
2018-02-09T02:53:40.510Z,50.70
2018-02-09T02:56:09.407Z,50.70
2018-02-09T02:58:36.945Z,50.70
2018-02-09T03:01:04.544Z,50.70
2018-02-09T03:03:32.033Z,50.70
2018-02-09T03:06:02.214Z,50.60
2018-02-09T03:08:29.768Z,50.70
2018-02-09T03:11:01.200Z,50.60
2018-02-09T03:13:28.853Z,50.70
2018-02-09T03:15:56.591Z,50.70
2018-02-09T03:18:24.137Z,50.60
2018-02-09T03:20:52.406Z,50.60
2018-02-09T03:23:19.908Z,50.60
2018-02-09T03:25:47.389Z,50.70
2018-02-09T03:28:15.238Z,50.70
2018-02-09T03:30:43.509Z,50.70
2018-02-09T03:33:11.926Z,50.70
2018-02-09T03:35:40.149Z,50.70
2018-02-09T03:38:11.707Z,50.70
2018-02-09T03:40:39.210Z,50.70
2018-02-09T03:43:07.728Z,50.70
2018-02-09T03:45:36.900Z,50.70
2018-02-09T03:48:05.190Z,51.30
2018-02-09T03:50:33.534Z,50.70
2018-02-09T03:53:01.090Z,50.70
2018-02-09T03:55:28.703Z,50.70
2018-02-09T03:57:56.193Z,50.70
2018-02-09T04:00:24.466Z,50.70
2018-02-09T04:02:52.046Z,51.30
2018-02-09T04:05:19.987Z,50.70
2018-02-09T04:07:47.498Z,50.70
2018-02-09T04:10:15.786Z,50.70
2018-02-09T04:12:44.054Z,50.60
2018-02-09T04:15:12.310Z,50.60
2018-02-09T04:17:39.933Z,50.70
2018-02-09T04:20:07.901Z,51.10
2018-02-09T04:22:35.705Z,50.60
2018-02-09T04:25:03.222Z,50.60
2018-02-09T04:27:30.814Z,50.60
2018-02-09T04:29:58.386Z,50.70
2018-02-09T04:32:26.662Z,50.60
2018-02-09T04:34:54.254Z,50.60
2018-02-09T04:37:21.862Z,50.60
2018-02-09T04:39:49.341Z,51.00
2018-02-09T04:42:17.613Z,50.60
2018-02-09T04:44:45.889Z,50.60
2018-02-09T04:47:14.254Z,50.60
2018-02-09T04:49:41.725Z,50.60
2018-02-09T04:52:09.985Z,50.60
2018-02-09T04:54:37.486Z,50.60
2018-02-09T04:57:05.043Z,50.60
2018-02-09T04:59:32.501Z,50.70
2018-02-09T05:01:59.986Z,50.70
2018-02-09T05:04:27.493Z,50.70
2018-02-09T05:06:56.877Z,50.80
2018-02-09T05:09:24.397Z,50.80
2018-02-09T05:11:52.074Z,50.80
2018-02-09T05:14:19.769Z,50.80
2018-02-09T05:16:47.593Z,50.80
2018-02-09T05:19:15.662Z,50.80
2018-02-09T05:21:43.202Z,50.70
2018-02-09T05:24:10.687Z,50.70
2018-02-09T05:26:38.262Z,50.70
2018-02-09T05:29:05.892Z,50.70
2018-02-09T05:31:33.500Z,50.60
2018-02-09T05:34:02.954Z,50.70
2018-02-09T05:36:31.100Z,50.70
2018-02-09T05:38:59.188Z,50.70
2018-02-09T05:41:27.385Z,50.40
2018-02-09T05:43:55.781Z,50.20
2018-02-09T05:46:23.297Z,50.20
2018-02-09T05:48:50.769Z,50.30
2018-02-09T05:51:18.295Z,50.40
2018-02-09T05:53:45.906Z,50.50
2018-02-09T05:56:14.834Z,50.50
2018-02-09T05:58:43.158Z,50.60
2018-02-09T06:01:10.728Z,50.60
2018-02-09T06:03:38.303Z,50.60
2018-02-09T06:06:07.155Z,50.60
2018-02-09T06:08:34.688Z,50.70
2018-02-09T06:11:03.201Z,50.70
2018-02-09T06:13:30.673Z,50.70
2018-02-09T06:15:58.338Z,50.70
2018-02-09T06:18:25.876Z,50.70
2018-02-09T06:20:53.485Z,50.80
2018-02-09T06:23:20.991Z,50.80
2018-02-09T06:25:48.568Z,50.80
2018-02-09T06:28:16.145Z,50.80
2018-02-09T06:30:43.706Z,50.80
2018-02-09T06:33:11.246Z,50.80
2018-02-09T06:35:38.930Z,50.80
2018-02-09T06:38:06.470Z,50.90
2018-02-09T06:40:33.989Z,50.90
2018-02-09T06:43:01.493Z,50.90
2018-02-09T06:45:29.098Z,50.90
2018-02-09T06:47:57.633Z,50.90
2018-02-09T06:50:25.411Z,50.90
2018-02-09T06:52:52.884Z,50.90
2018-02-09T06:55:21.148Z,51.00
2018-02-09T06:57:51.952Z,51.00
2018-02-09T07:00:19.473Z,51.00
2018-02-09T07:02:46.977Z,50.90
2018-02-09T07:05:14.504Z,50.90
2018-02-09T07:07:42.062Z,50.90
2018-02-09T07:10:09.582Z,50.90
2018-02-09T07:12:38.344Z,51.00
2018-02-09T07:15:05.964Z,50.90
2018-02-09T07:17:33.783Z,51.20
2018-02-09T07:20:03.060Z,51.00
2018-02-09T07:22:30.698Z,51.00
2018-02-09T07:24:59.070Z,51.10
2018-02-09T07:27:26.561Z,51.10
2018-02-09T07:29:54.970Z,51.10
2018-02-09T07:32:23.857Z,51.10
2018-02-09T07:34:51.433Z,51.10
2018-02-09T07:37:19.705Z,51.10
2018-02-09T07:39:47.963Z,51.10
2018-02-09T07:42:16.767Z,51.10
2018-02-09T07:44:44.321Z,51.10
2018-02-09T07:47:11.932Z,51.70
2018-02-09T07:49:39.444Z,51.10
2018-02-09T07:52:07.019Z,51.10
2018-02-09T07:54:34.519Z,51.10
2018-02-09T07:57:02.068Z,51.10
2018-02-09T07:59:29.751Z,51.10
2018-02-09T08:01:57.300Z,51.10
2018-02-09T08:04:24.768Z,51.10
2018-02-09T08:06:52.276Z,51.10
2018-02-09T08:09:19.756Z,51.20
2018-02-09T08:11:47.266Z,51.20
2018-02-09T08:14:14.896Z,51.20
2018-02-09T08:16:42.492Z,51.20
2018-02-09T08:19:10.813Z,51.20
2018-02-09T08:21:38.339Z,51.20
2018-02-09T08:24:05.822Z,51.20
2018-02-09T08:26:33.358Z,51.20
2018-02-09T08:29:01.904Z,51.20
2018-02-09T08:31:30.126Z,51.70
2018-02-09T08:33:57.658Z,51.00
2018-02-09T08:36:26.297Z,51.20
2018-02-09T08:38:53.958Z,51.20
2018-02-09T08:41:21.580Z,51.20
2018-02-09T08:43:49.076Z,51.20
2018-02-09T08:46:16.586Z,51.20
2018-02-09T08:48:44.104Z,51.20
2018-02-09T08:51:11.611Z,51.20
2018-02-09T08:53:39.134Z,51.20
2018-02-09T08:56:07.554Z,51.20
2018-02-09T08:58:35.029Z,51.30
2018-02-09T09:01:02.551Z,51.20
2018-02-09T09:03:30.045Z,51.20
2018-02-09T09:05:57.605Z,51.30
2018-02-09T09:08:25.173Z,51.30
2018-02-09T09:10:53.126Z,51.30
2018-02-09T09:13:20.663Z,51.30
2018-02-09T09:15:48.538Z,51.30
2018-02-09T09:18:16.020Z,51.30
2018-02-09T09:20:43.520Z,51.30
2018-02-09T09:23:11.950Z,51.30
2018-02-09T09:25:39.515Z,51.30
2018-02-09T09:28:07.111Z,51.30
2018-02-09T09:30:35.534Z,51.30
2018-02-09T09:33:02.998Z,51.20
2018-02-09T09:35:30.517Z,51.20
2018-02-09T09:37:58.005Z,51.30
2018-02-09T09:40:25.504Z,51.30
2018-02-09T09:42:53.779Z,51.30
2018-02-09T09:45:21.341Z,51.20
2018-02-09T09:47:49.613Z,51.40
2018-02-09T09:50:18.015Z,51.30
2018-02-09T09:52:46.246Z,51.40
2018-02-09T09:55:13.768Z,51.30
2018-02-09T09:57:41.255Z,51.30
2018-02-09T10:00:08.756Z,51.30
2018-02-09T10:02:39.435Z,51.30
2018-02-09T10:05:06.941Z,51.30
2018-02-09T10:07:35.187Z,51.40
2018-02-09T10:10:02.861Z,51.30
2018-02-09T10:12:30.483Z,51.30
2018-02-09T10:14:58.125Z,52.00
2018-02-09T10:17:25.724Z,51.40
2018-02-09T10:19:53.221Z,51.30
2018-02-09T10:22:20.741Z,51.40
2018-02-09T10:24:48.245Z,51.40
2018-02-09T10:27:16.347Z,51.40
2018-02-09T10:29:43.905Z,51.40
2018-02-09T10:32:11.451Z,51.40
2018-02-09T10:34:38.954Z,51.40
2018-02-09T10:37:06.454Z,51.40
2018-02-09T10:39:33.955Z,51.40
2018-02-09T10:42:01.509Z,51.40
2018-02-09T10:44:29.138Z,51.40
2018-02-09T10:46:56.756Z,51.40
2018-02-09T10:49:24.275Z,51.40
2018-02-09T10:51:51.748Z,51.40
2018-02-09T10:54:19.254Z,51.40
2018-02-09T10:56:47.525Z,51.40
2018-02-09T10:59:15.800Z,51.40
2018-02-09T11:01:44.046Z,51.50
2018-02-09T11:04:11.560Z,51.40
2018-02-09T11:06:39.180Z,51.50
2018-02-09T11:09:06.703Z,51.50
2018-02-09T11:11:34.187Z,51.50
2018-02-09T11:14:01.713Z,51.40
2018-02-09T11:16:29.208Z,51.50
2018-02-09T11:18:56.844Z,51.50
2018-02-09T11:21:24.501Z,51.50
2018-02-09T11:23:52.222Z,51.50
2018-02-09T11:26:19.718Z,51.50
2018-02-09T11:28:47.207Z,51.60
2018-02-09T11:31:15.480Z,51.60
2018-02-09T11:33:44.117Z,51.60
2018-02-09T11:36:11.614Z,51.60
2018-02-09T11:38:39.113Z,51.60
2018-02-09T11:41:06.651Z,51.60
2018-02-09T11:43:34.175Z,51.60
2018-02-09T11:46:01.681Z,51.60
2018-02-09T11:48:29.193Z,51.60
2018-02-09T11:50:56.689Z,51.60
2018-02-09T11:53:24.219Z,51.60
2018-02-09T11:55:51.837Z,51.60
2018-02-09T11:58:19.683Z,51.60
2018-02-09T12:00:47.723Z,51.60
2018-02-09T12:03:15.993Z,51.70
2018-02-09T12:05:43.493Z,51.70
2018-02-09T12:08:11.006Z,51.70
2018-02-09T12:10:38.671Z,51.60
2018-02-09T12:13:07.150Z,51.60
2018-02-09T12:15:34.720Z,51.60
2018-02-09T12:18:02.296Z,51.60
2018-02-09T12:20:29.855Z,51.60
2018-02-09T12:22:57.358Z,51.60
2018-02-09T12:25:24.919Z,51.70
2018-02-09T12:27:52.444Z,51.70
2018-02-09T12:30:20.007Z,52.20
2018-02-09T12:32:47.609Z,51.60
2018-02-09T12:35:15.183Z,51.60
2018-02-09T12:37:42.685Z,51.60
2018-02-09T12:40:10.198Z,51.60
2018-02-09T12:42:38.463Z,51.70
2018-02-09T12:45:05.983Z,51.60
2018-02-09T12:47:33.578Z,51.70
2018-02-09T12:50:01.080Z,51.60
2018-02-09T12:52:28.559Z,51.60
2018-02-09T12:54:56.133Z,51.70
2018-02-09T12:57:23.694Z,51.70
2018-02-09T12:59:51.277Z,51.70
2018-02-09T13:02:18.814Z,51.70
2018-02-09T13:04:46.378Z,52.30
2018-02-09T13:07:13.917Z,51.70
2018-02-09T13:09:41.674Z,51.70
2018-02-09T13:12:09.217Z,51.70
2018-02-09T13:14:49.833Z,51.70
2018-02-09T13:17:17.342Z,51.70
2018-02-09T13:19:44.848Z,51.70
2018-02-09T13:22:24.048Z,51.70
2018-02-09T13:24:51.893Z,51.70
2018-02-09T13:27:19.384Z,51.70
2018-02-09T13:29:46.886Z,51.70
2018-02-09T13:32:26.875Z,51.80
2018-02-09T13:34:55.010Z,51.70
2018-02-09T13:37:33.294Z,51.80
2018-02-09T13:40:00.791Z,51.80
2018-02-09T13:42:29.170Z,51.80
2018-02-09T13:44:56.676Z,51.80
2018-02-09T13:47:24.247Z,51.80
2018-02-09T13:49:51.735Z,51.70
2018-02-09T13:52:20.094Z,51.80
2018-02-09T13:54:47.573Z,51.80
2018-02-09T13:57:15.077Z,51.80
2018-02-09T13:59:42.566Z,51.80
2018-02-09T14:02:10.948Z,51.80
2018-02-09T14:04:39.409Z,51.80
2018-02-09T14:07:07.833Z,51.80
2018-02-09T14:09:35.578Z,51.80
2018-02-09T14:12:03.952Z,51.80
2018-02-09T14:14:31.487Z,51.80
2018-02-09T14:16:59.475Z,53.60
2018-02-09T14:19:27.729Z,57.70
2018-02-09T14:21:55.240Z,57.70
2018-02-09T14:24:22.852Z,55.70
2018-02-09T14:26:50.418Z,54.70
2018-02-09T14:29:17.908Z,54.70
2018-02-09T14:31:45.396Z,53.50
2018-02-09T14:34:12.907Z,53.30
2018-02-09T14:36:41.269Z,53.00
2018-02-09T14:39:09.666Z,52.80
2018-02-09T14:41:37.163Z,52.80
2018-02-09T14:44:04.664Z,52.70
2018-02-09T14:46:32.179Z,52.70
2018-02-09T14:48:59.743Z,52.60
2018-02-09T14:51:27.391Z,52.50
2018-02-09T14:53:54.949Z,52.50
2018-02-09T14:56:22.437Z,52.40
2018-02-09T14:58:50.051Z,52.40
2018-02-09T15:01:17.537Z,52.40
2018-02-09T15:03:45.029Z,52.30
2018-02-09T15:06:12.559Z,52.30
2018-02-09T15:08:40.070Z,52.30
2018-02-09T15:11:08.316Z,52.30
2018-02-09T15:13:35.834Z,52.30
2018-02-09T15:16:03.333Z,52.30
2018-02-09T15:18:31.634Z,52.30
2018-02-09T15:20:59.146Z,52.20
2018-02-09T15:23:26.806Z,52.20
2018-02-09T15:25:54.302Z,52.20
2018-02-09T15:28:22.585Z,52.20
2018-02-09T15:30:50.070Z,52.20
2018-02-09T15:33:17.962Z,52.20
2018-02-09T15:35:45.494Z,52.20
2018-02-09T15:38:12.978Z,52.20
2018-02-09T15:40:40.485Z,52.20
2018-02-09T15:43:08.014Z,52.20
2018-02-09T15:45:36.312Z,52.20
2018-02-09T15:48:03.874Z,52.20
2018-02-09T15:50:31.446Z,52.20
2018-02-09T15:52:59.062Z,52.10
2018-02-09T15:55:26.572Z,52.10
2018-02-09T15:57:54.046Z,52.20
2018-02-09T16:00:21.551Z,52.20
2018-02-09T16:02:49.831Z,52.20
2018-02-09T16:05:17.331Z,52.10
2018-02-09T16:07:44.830Z,52.10
2018-02-09T16:10:12.694Z,52.10
2018-02-09T16:12:40.335Z,52.20
2018-02-09T16:15:08.618Z,52.60
2018-02-09T16:17:36.134Z,52.10
2018-02-09T16:20:04.217Z,52.20
2018-02-09T16:22:31.752Z,52.20
2018-02-09T16:24:59.345Z,52.20
2018-02-09T16:27:26.959Z,52.20
2018-02-09T16:29:55.433Z,52.20
2018-02-09T16:32:23.748Z,52.10
2018-02-09T16:34:51.258Z,52.10
2018-02-09T16:37:18.748Z,52.10
2018-02-09T16:39:46.238Z,52.20
2018-02-09T16:42:13.741Z,52.20
2018-02-09T16:44:42.023Z,52.20
2018-02-09T16:47:10.286Z,52.20
2018-02-09T16:49:38.585Z,52.20
2018-02-09T16:52:06.217Z,52.20
2018-02-09T16:54:34.465Z,52.20
2018-02-09T16:57:01.993Z,52.10
2018-02-09T16:59:29.473Z,52.20
2018-02-09T17:01:56.972Z,52.10
2018-02-09T17:04:25.229Z,52.20
2018-02-09T17:06:52.751Z,52.20
2018-02-09T17:09:20.257Z,52.20
2018-02-09T17:11:48.731Z,52.30
2018-02-09T17:14:16.229Z,52.30
2018-02-09T17:16:43.807Z,52.30
2018-02-09T17:19:11.278Z,52.30
2018-02-09T17:21:38.902Z,52.30
2018-02-09T17:24:06.422Z,52.30
2018-02-09T17:26:34.713Z,52.30
2018-02-09T17:29:02.255Z,52.30
2018-02-09T17:31:29.745Z,52.30
2018-02-09T17:33:57.246Z,52.30
2018-02-09T17:36:24.754Z,52.30
2018-02-09T17:38:53.031Z,52.30
2018-02-09T17:41:21.340Z,52.30
2018-02-09T17:43:48.933Z,52.30
2018-02-09T17:46:16.595Z,52.30
2018-02-09T17:48:44.186Z,52.30
2018-02-09T17:51:11.680Z,52.30
2018-02-09T17:53:39.188Z,52.30
2018-02-09T17:56:07.454Z,52.30
2018-02-09T17:58:36.580Z,52.30
2018-02-09T18:01:04.170Z,52.30
2018-02-09T18:03:31.897Z,52.30
2018-02-09T18:05:59.379Z,52.30
2018-02-09T18:08:26.915Z,52.30
2018-02-09T18:10:55.154Z,52.30
2018-02-09T18:13:23.417Z,52.90
2018-02-09T18:15:50.929Z,52.30
2018-02-09T18:18:18.411Z,52.30
2018-02-09T18:20:45.923Z,52.30
2018-02-09T18:23:14.197Z,52.30
2018-02-09T18:25:41.727Z,52.30
2018-02-09T18:28:09.217Z,52.30
2018-02-09T18:30:37.477Z,52.30
2018-02-09T18:33:05.757Z,52.30
2018-02-09T18:35:34.030Z,52.30
2018-02-09T18:38:01.548Z,52.30
2018-02-09T18:40:29.155Z,52.30
2018-02-09T18:42:57.493Z,52.30
2018-02-09T18:45:24.974Z,52.30
2018-02-09T18:47:52.458Z,52.30
2018-02-09T18:50:19.969Z,52.30
2018-02-09T18:52:47.593Z,52.30
2018-02-09T18:55:15.500Z,52.30
2018-02-09T18:57:43.296Z,52.30
2018-02-09T19:00:10.888Z,52.30
2018-02-09T19:02:38.399Z,52.30
2018-02-09T19:05:05.910Z,52.30
2018-02-09T19:07:33.630Z,52.30
2018-02-09T19:10:01.927Z,52.40
2018-02-09T19:12:29.500Z,52.30
2018-02-09T19:14:57.007Z,52.30
2018-02-09T19:17:24.521Z,52.30
2018-02-09T19:19:52.027Z,52.30
2018-02-09T19:22:20.306Z,52.40
2018-02-09T19:24:47.846Z,52.30
2018-02-09T19:27:15.480Z,52.40
2018-02-09T19:29:42.982Z,52.30
2018-02-09T19:32:11.282Z,52.40
2018-02-09T19:34:38.794Z,52.40
2018-02-09T19:37:06.301Z,52.30
2018-02-09T19:39:33.919Z,52.40
2018-02-09T19:42:01.480Z,52.40
2018-02-09T19:44:29.046Z,52.30
2018-02-09T19:46:56.546Z,52.30
2018-02-09T19:49:24.052Z,52.90
2018-02-09T19:51:51.544Z,52.40
2018-02-09T19:54:19.821Z,52.40
2018-02-09T19:56:48.084Z,52.40
2018-02-09T19:59:16.338Z,52.40
2018-02-09T20:01:43.872Z,52.40
2018-02-09T20:04:11.361Z,52.40
2018-02-09T20:06:38.862Z,52.40
2018-02-09T20:09:06.374Z,52.40
2018-02-09T20:11:33.879Z,52.40
2018-02-09T20:14:01.468Z,52.40
2018-02-09T20:16:28.967Z,52.40
2018-02-09T20:18:57.248Z,52.40
2018-02-09T20:21:25.520Z,52.40
2018-02-09T20:23:53.872Z,52.40
2018-02-09T20:26:21.362Z,52.40
2018-02-09T20:28:48.872Z,52.40
2018-02-09T20:31:16.365Z,52.40
2018-02-09T20:33:43.918Z,52.40
2018-02-09T20:36:12.344Z,52.40
2018-02-09T20:38:39.850Z,52.40
2018-02-09T20:41:08.093Z,52.80
2018-02-09T20:43:35.604Z,52.40
2018-02-09T20:46:03.880Z,52.40
2018-02-09T20:48:32.234Z,52.40
2018-02-09T20:51:00.594Z,52.50
2018-02-09T20:53:28.120Z,52.40
2018-02-09T20:55:55.658Z,52.40
2018-02-09T20:58:23.901Z,52.40
2018-02-09T21:00:51.409Z,52.40
2018-02-09T21:03:18.922Z,52.60
2018-02-09T21:05:47.181Z,52.50
2018-02-09T21:08:14.687Z,52.40
2018-02-09T21:10:42.196Z,52.40
2018-02-09T21:13:09.691Z,52.40
2018-02-09T21:15:37.206Z,52.50
2018-02-09T21:18:04.704Z,52.40
2018-02-09T21:20:32.270Z,52.50
2018-02-09T21:22:59.848Z,52.50
2018-02-09T21:25:27.398Z,52.50
2018-02-09T21:27:54.890Z,52.40
2018-02-09T21:30:22.381Z,52.40
2018-02-09T21:32:50.651Z,52.50
2018-02-09T21:35:18.263Z,52.50
2018-02-09T21:37:45.914Z,52.40
2018-02-09T21:40:13.441Z,52.50
2018-02-09T21:42:41.703Z,52.50
2018-02-09T21:45:09.233Z,52.50
2018-02-09T21:47:36.734Z,52.50
2018-02-09T21:50:04.280Z,52.50
2018-02-09T21:52:31.826Z,52.40
2018-02-09T21:54:59.668Z,52.50
2018-02-09T21:57:27.170Z,52.50
2018-02-09T21:59:55.400Z,52.50
2018-02-09T22:02:22.901Z,52.50
2018-02-09T22:04:51.161Z,52.50
2018-02-09T22:07:19.421Z,52.50
2018-02-09T22:09:46.926Z,52.50
2018-02-09T22:12:14.942Z,52.50
2018-02-09T22:14:42.433Z,52.50
2018-02-09T22:17:09.917Z,52.50
2018-02-09T22:19:37.414Z,52.40
2018-02-09T22:22:04.982Z,52.50
2018-02-09T22:24:32.589Z,52.40
2018-02-09T22:27:00.141Z,52.50
2018-02-09T22:29:28.413Z,52.60
2018-02-09T22:31:56.774Z,52.60
2018-02-09T22:34:24.258Z,52.60
2018-02-09T22:36:51.752Z,52.70
2018-02-09T22:39:19.254Z,52.60
2018-02-09T22:41:46.797Z,52.60
2018-02-09T22:44:15.287Z,52.70
2018-02-09T22:46:43.606Z,52.60
2018-02-09T22:49:11.178Z,52.60
2018-02-09T22:51:38.669Z,53.20
2018-02-09T22:54:06.945Z,53.20
2018-02-09T22:56:35.222Z,52.60
2018-02-09T22:59:02.738Z,52.60
2018-02-09T23:01:30.252Z,52.60
2018-02-09T23:03:58.575Z,52.60
2018-02-09T23:06:26.190Z,52.60
2018-02-09T23:08:54.514Z,52.60
2018-02-09T23:11:21.993Z,52.60
2018-02-09T23:13:50.255Z,52.50
2018-02-09T23:16:17.724Z,52.60
2018-02-09T23:18:45.486Z,52.50
2018-02-09T23:21:13.050Z,52.50
2018-02-09T23:23:40.595Z,52.50
2018-02-09T23:26:08.097Z,52.50
2018-02-09T23:28:35.580Z,52.40
2018-02-09T23:31:03.099Z,52.50
2018-02-09T23:33:31.370Z,52.80
2018-02-09T23:35:59.639Z,52.50
2018-02-09T23:38:27.142Z,52.50
2018-02-09T23:40:54.692Z,52.50
2018-02-09T23:43:22.977Z,52.50
2018-02-09T23:45:50.478Z,52.40
2018-02-09T23:48:17.969Z,52.50
2018-02-09T23:50:45.581Z,52.40
2018-02-09T23:53:13.207Z,52.40
2018-02-09T23:55:40.751Z,52.40
2018-02-09T23:58:08.244Z,52.40
